Time;durP1;ratioP1;P1;durP2;ratioP2;P2;SDS_P1;SDS_P2;PMS_P1;PMS_P2;Temp;Humidity;BMP_temperature;BMP_pressure;BME280_temperature;BME280_humidity;BME280_pressure;Samples;Min_cycle;Max_cycle;Signal;HPM_P1;HPM_P2
2021/08/24 00:01:50;;;;;;;5.73;2.93;;;;;;;;;;5035681;28;20178;-82
2021/08/24 00:04:34;;;;;;;3.93;2.33;;;;;;;;;;5017957;28;20267;-82
2021/08/24 00:07:00;;;;;;;4.07;2.30;;;;;;;;;;5017957;28;20206;-82
2021/08/24 00:09:27;;;;;;;2.60;2.40;;;;;;;;;;5018499;28;20186;-82
2021/08/24 00:11:53;;;;;;;3.43;2.63;;;;;;;;;;5015447;28;20182;-82
2021/08/24 00:14:19;;;;;;;3.07;2.37;;;;;;;;;;5018508;28;20214;-82
2021/08/24 00:16:50;;;;;;;2.87;2.03;;;;;;;;;;5036155;28;20264;-82
2021/08/24 00:19:16;;;;;;;3.20;2.33;;;;;;;;;;5018455;28;20178;-82
2021/08/24 00:21:43;;;;;;;3.63;2.33;;;;;;;;;;5017917;28;20184;-82
2021/08/24 00:24:10;;;;;;;3.10;2.43;;;;;;;;;;5035292;28;20201;-82
2021/08/24 00:26:37;;;;;;;3.90;2.40;;;;;;;;;;5017679;28;20178;-82
2021/08/24 00:29:03;;;;;;;2.43;2.23;;;;;;;;;;5018323;28;20183;-82
2021/08/24 00:31:34;;;;;;;3.03;2.53;;;;;;;;;;5017723;28;20189;-82
2021/08/24 00:34:07;;;;;;;3.10;2.20;;;;;;;;;;5018009;28;20212;-82
2021/08/24 00:36:33;;;;;;;2.57;2.30;;;;;;;;;;5018431;28;20178;-82
2021/08/24 00:39:00;;;;;;;5.13;2.40;;;;;;;;;;5019338;28;20194;-82
2021/08/24 00:41:27;;;;;;;2.20;2.00;;;;;;;;;;5018251;28;20193;-83
2021/08/24 00:43:53;;;;;;;3.10;2.23;;;;;;;;;;5014264;28;20228;-82
2021/08/24 00:46:26;;;;;;;2.57;2.37;;;;;;;;;;5018873;28;20275;-82
2021/08/24 00:48:55;;;;;;;2.77;2.20;;;;;;;;;;5017187;28;20186;-82
2021/08/24 00:51:24;;;;;;;2.77;2.00;;;;;;;;;;5018204;28;20196;-82
2021/08/24 00:53:51;;;;;;;3.13;2.43;;;;;;;;;;5019121;28;20204;-82
2021/08/24 00:56:19;;;;;;;3.07;2.47;;;;;;;;;;5001667;28;20185;-82
2021/08/24 00:58:46;;;;;;;2.27;2.00;;;;;;;;;;5019143;28;20263;-82
2021/08/24 01:01:12;;;;;;;5.70;2.90;;;;;;;;;;5021766;28;20178;-82
2021/08/24 01:03:45;;;;;;;3.63;2.27;;;;;;;;;;5020008;28;20250;-82
2021/08/24 01:06:33;;;;;;;2.73;2.23;;;;;;;;;;5019829;28;20201;-81
2021/08/24 01:09:18;;;;;;;2.50;2.30;;;;;;;;;;5013554;28;20174;-82
2021/08/24 01:11:44;;;;;;;2.67;2.47;;;;;;;;;;5009572;28;20239;-82
2021/08/24 01:14:32;;;;;;;2.43;2.20;;;;;;;;;;5033278;28;20257;-82
2021/08/24 01:17:07;;;;;;;2.60;2.33;;;;;;;;;;5021334;28;20189;-82
2021/08/24 01:19:40;;;;;;;2.33;1.90;;;;;;;;;;5028896;28;20185;-82
2021/08/24 01:22:06;;;;;;;2.40;2.20;;;;;;;;;;5035916;28;20242;-82
2021/08/24 01:24:40;;;;;;;2.60;2.20;;;;;;;;;;5019102;28;20197;-82
2021/08/24 01:27:11;;;;;;;4.70;2.50;;;;;;;;;;5017585;28;20181;-82
2021/08/24 01:29:57;;;;;;;3.37;2.00;;;;;;;;;;5015908;28;20201;-82
2021/08/24 01:32:50;;;;;;;3.87;2.60;;;;;;;;;;5035475;28;20196;-80
2021/08/24 01:35:21;;;;;;;2.80;2.23;;;;;;;;;;5003885;28;20214;-80
2021/08/24 01:38:07;;;;;;;2.53;2.07;;;;;;;;;;5020673;28;20182;-81
2021/08/24 01:40:52;;;;;;;2.90;2.47;;;;;;;;;;5036356;28;20209;-81
2021/08/24 01:43:21;;;;;;;2.20;2.00;;;;;;;;;;5023119;28;20178;-80
2021/08/24 01:45:50;;;;;;;4.67;2.37;;;;;;;;;;5025557;28;20177;-81
2021/08/24 01:48:33;;;;;;;2.67;2.47;;;;;;;;;;5016277;28;20186;-81
2021/08/24 01:51:02;;;;;;;2.53;1.97;;;;;;;;;;5015070;28;20196;-81
2021/08/24 01:53:32;;;;;;;2.20;2.00;;;;;;;;;;5014643;28;20205;-81
2021/08/24 01:56:02;;;;;;;2.13;1.93;;;;;;;;;;5020446;28;20188;-81
2021/08/24 01:58:55;;;;;;;2.20;1.90;;;;;;;;;;5037731;28;20243;-81
2021/08/24 02:01:25;;;;;;;2.10;1.90;;;;;;;;;;5015908;28;20190;-81
2021/08/24 02:03:54;;;;;;;3.23;1.93;;;;;;;;;;5016641;28;20182;-81
2021/08/24 02:06:30;;;;;;;2.10;1.90;;;;;;;;;;5017443;28;20214;-81
2021/08/24 02:08:58;;;;;;;2.67;2.47;;;;;;;;;;5034981;28;20186;-81
2021/08/24 02:11:27;;;;;;;4.47;2.03;;;;;;;;;;5018529;28;20269;-82
2021/08/24 02:13:53;;;;;;;4.00;2.47;;;;;;;;;;5013043;28;20206;-81
2021/08/24 02:16:21;;;;;;;2.87;2.30;;;;;;;;;;5017732;28;20221;-82
2021/08/24 02:18:57;;;;;;;2.07;1.80;;;;;;;;;;5035808;28;20268;-82
2021/08/24 02:21:31;;;;;;;3.17;2.20;;;;;;;;;;5017577;28;20580;-82
2021/08/24 02:24:00;;;;;;;2.20;2.00;;;;;;;;;;5034408;28;20201;-81
2021/08/24 02:26:27;;;;;;;3.13;2.20;;;;;;;;;;5018066;28;20182;-82
2021/08/24 02:28:55;;;;;;;3.63;2.47;;;;;;;;;;5009729;28;20200;-81
2021/08/24 02:31:31;;;;;;;2.40;2.20;;;;;;;;;;5017033;28;20248;-81
2021/08/24 02:34:10;;;;;;;2.57;2.13;;;;;;;;;;5035378;28;20212;-82
2021/08/24 02:36:37;;;;;;;2.43;1.70;;;;;;;;;;5025139;28;20339;-81
2021/08/24 02:39:05;;;;;;;2.50;2.10;;;;;;;;;;5019502;28;20189;-82
2021/08/24 02:41:55;;;;;;;2.77;2.13;;;;;;;;;;5037738;28;20248;-82
2021/08/24 02:44:23;;;;;;;3.23;1.93;;;;;;;;;;5022416;28;20185;-82
2021/08/24 02:46:52;;;;;;;1.83;1.73;;;;;;;;;;5038151;28;20192;-82
2021/08/24 02:49:24;;;;;;;2.17;1.80;;;;;;;;;;5037328;28;20180;-82
2021/08/24 02:51:51;;;;;;;2.83;2.23;;;;;;;;;;5034156;28;20516;-82
2021/08/24 02:54:39;;;;;;;1.80;1.70;;;;;;;;;;5017630;28;20321;-82
2021/08/24 02:57:06;;;;;;;2.07;1.87;;;;;;;;;;5017716;28;20188;-82
2021/08/24 02:59:33;;;;;;;1.97;1.60;;;;;;;;;;5033864;28;20225;-82
2021/08/24 03:01:59;;;;;;;1.90;1.63;;;;;;;;;;5024314;28;20245;-81
2021/08/24 03:04:26;;;;;;;2.00;1.80;;;;;;;;;;5017160;28;20216;-81
2021/08/24 03:06:54;;;;;;;1.70;1.60;;;;;;;;;;5032818;28;20206;-82
2021/08/24 03:09:21;;;;;;;2.70;1.90;;;;;;;;;;5034773;28;20506;-82
2021/08/24 03:11:52;;;;;;;2.37;2.13;;;;;;;;;;5015175;28;20281;-82
2021/08/24 03:14:26;;;;;;;2.27;1.70;;;;;;;;;;5017654;28;20198;-82
2021/08/24 03:16:55;;;;;;;2.77;2.33;;;;;;;;;;5017630;28;20174;-82
2021/08/24 03:19:25;;;;;;;2.70;2.00;;;;;;;;;;5016555;28;20181;-82
2021/08/24 03:21:53;;;;;;;1.80;1.60;;;;;;;;;;5021835;28;20269;-82
2021/08/24 03:24:19;;;;;;;2.17;1.97;;;;;;;;;;5035019;28;20190;-82
2021/08/24 03:26:46;;;;;;;2.30;2.10;;;;;;;;;;5017278;28;20186;-82
2021/08/24 03:29:15;;;;;;;3.00;2.20;;;;;;;;;;5017252;28;20244;-82
2021/08/24 03:31:41;;;;;;;2.40;1.90;;;;;;;;;;5016053;28;20186;-82
2021/08/24 03:34:08;;;;;;;2.73;2.53;;;;;;;;;;5016987;28;20663;-82
2021/08/24 03:36:34;;;;;;;1.70;1.60;;;;;;;;;;5016575;28;20481;-82
2021/08/24 03:39:00;;;;;;;2.03;1.93;;;;;;;;;;5033703;28;20200;-82
2021/08/24 03:41:29;;;;;;;2.77;2.20;;;;;;;;;;5032379;28;20283;-82
2021/08/24 03:43:56;;;;;;;2.10;1.93;;;;;;;;;;5034456;28;20178;-81
2021/08/24 03:46:23;;;;;;;1.80;1.70;;;;;;;;;;5033765;28;20182;-81
2021/08/24 03:48:50;;;;;;;2.03;1.80;;;;;;;;;;5033754;28;20594;-82
2021/08/24 03:51:16;;;;;;;3.77;2.00;;;;;;;;;;5032638;28;20221;-82
2021/08/24 03:53:42;;;;;;;2.70;1.97;;;;;;;;;;5032911;28;20532;-82
2021/08/24 03:56:08;;;;;;;2.03;1.80;;;;;;;;;;5016192;28;20841;-83
2021/08/24 03:58:35;;;;;;;2.60;2.03;;;;;;;;;;5017425;28;20213;-82
2021/08/24 04:01:01;;;;;;;2.50;2.20;;;;;;;;;;5033929;28;20178;-82
2021/08/24 04:03:29;;;;;;;2.23;2.03;;;;;;;;;;5035831;28;20191;-82
2021/08/24 04:05:59;;;;;;;2.53;1.90;;;;;;;;;;5035406;28;20232;-82
2021/08/24 04:08:25;;;;;;;2.20;2.00;;;;;;;;;;5032821;28;20189;-81
2021/08/24 04:10:51;;;;;;;3.23;1.93;;;;;;;;;;5015846;28;20230;-82
2021/08/24 04:13:18;;;;;;;2.23;2.03;;;;;;;;;;5033371;28;20185;-81
2021/08/24 04:15:46;;;;;;;1.97;1.87;;;;;;;;;;5030635;28;20209;-82
2021/08/24 04:18:13;;;;;;;2.10;1.90;;;;;;;;;;5032485;28;20174;-82
2021/08/24 04:20:42;;;;;;;2.77;2.43;;;;;;;;;;5032501;28;20177;-81
2021/08/24 04:23:09;;;;;;;2.23;2.03;;;;;;;;;;5012552;28;20196;-81
2021/08/24 04:25:35;;;;;;;2.37;2.10;;;;;;;;;;5014964;28;20243;-81
2021/08/24 04:28:01;;;;;;;2.40;2.03;;;;;;;;;;5013343;28;20257;-81
2021/08/24 04:30:27;;;;;;;3.23;2.57;;;;;;;;;;5030526;28;20184;-82
2021/08/24 04:32:53;;;;;;;2.10;1.90;;;;;;;;;;5032281;28;20174;-81
2021/08/24 04:35:20;;;;;;;2.37;2.17;;;;;;;;;;5033491;28;20227;-81
2021/08/24 04:37:46;;;;;;;2.10;1.73;;;;;;;;;;5029825;28;20636;-81
2021/08/24 04:40:13;;;;;;;2.10;1.90;;;;;;;;;;5014188;28;20197;-81
2021/08/24 04:42:39;;;;;;;2.67;1.80;;;;;;;;;;5029631;28;20261;-81
2021/08/24 04:45:06;;;;;;;4.33;1.97;;;;;;;;;;5031421;28;20181;-81
2021/08/24 04:47:32;;;;;;;1.93;1.80;;;;;;;;;;5037643;28;20243;-82
2021/08/24 04:49:58;;;;;;;2.07;1.90;;;;;;;;;;5012292;28;20194;-81
2021/08/24 04:52:28;;;;;;;2.30;2.10;;;;;;;;;;5013348;28;20183;-81
2021/08/24 04:54:54;;;;;;;2.17;1.90;;;;;;;;;;5030934;28;20297;-81
2021/08/24 04:57:20;;;;;;;3.43;2.90;;;;;;;;;;5010465;28;20195;-81
2021/08/24 04:59:46;;;;;;;2.50;1.73;;;;;;;;;;5013386;28;20545;-81
2021/08/24 05:02:15;;;;;;;2.60;2.13;;;;;;;;;;5031555;28;20575;-81
2021/08/24 05:04:41;;;;;;;2.17;1.93;;;;;;;;;;5013226;28;20193;-81
2021/08/24 05:07:07;;;;;;;2.10;1.90;;;;;;;;;;5012304;28;20275;-80
2021/08/24 05:09:33;;;;;;;2.40;1.90;;;;;;;;;;5028126;28;20177;-81
2021/08/24 05:11:59;;;;;;;2.37;2.10;;;;;;;;;;5027403;28;20202;-81
2021/08/24 05:14:27;;;;;;;2.63;2.10;;;;;;;;;;5004114;28;20198;-84
2021/08/24 05:16:55;;;;;;;3.80;2.30;;;;;;;;;;5036575;28;20180;-83
2021/08/24 05:19:21;;;;;;;3.70;2.03;;;;;;;;;;5035274;28;20193;-81
2021/08/24 05:21:48;;;;;;;2.67;2.30;;;;;;;;;;5041968;28;20187;-82
2021/08/24 05:24:14;;;;;;;2.47;1.90;;;;;;;;;;5002724;28;20190;-82
2021/08/24 05:26:41;;;;;;;3.17;2.47;;;;;;;;;;5005879;28;20619;-83
2021/08/24 05:29:07;;;;;;;2.40;2.20;;;;;;;;;;5021570;28;20258;-83
2021/08/24 05:31:34;;;;;;;2.00;1.73;;;;;;;;;;5040460;28;20264;-82
2021/08/24 05:34:06;;;;;;;2.90;2.43;;;;;;;;;;5041116;28;20498;-82
2021/08/24 05:36:32;;;;;;;3.63;2.23;;;;;;;;;;5023350;28;20236;-82
2021/08/24 05:38:59;;;;;;;2.60;2.40;;;;;;;;;;5025699;28;20182;-81
2021/08/24 05:41:26;;;;;;;3.00;2.77;;;;;;;;;;5041693;28;20553;-81
2021/08/24 05:43:52;;;;;;;6.20;3.17;;;;;;;;;;5039110;28;21057;-81
2021/08/24 05:46:19;;;;;;;4.23;3.33;;;;;;;;;;5012617;28;20263;-83
2021/08/24 05:48:45;;;;;;;4.43;3.97;;;;;;;;;;5016548;28;20182;-84
2021/08/24 05:51:22;;;;;;;5.17;4.17;;;;;;;;;;5007513;28;20313;-83
2021/08/24 05:53:48;;;;;;;10.23;4.30;;;;;;;;;;5013789;28;20259;-83
2021/08/24 05:56:16;;;;;;;4.77;3.57;;;;;;;;;;5034700;28;20566;-85
2021/08/24 05:58:42;;;;;;;5.57;5.00;;;;;;;;;;5018071;28;20229;-84
2021/08/24 06:01:11;;;;;;;7.63;4.10;;;;;;;;;;5020374;28;20551;-85
2021/08/24 06:03:37;;;;;;;4.30;3.90;;;;;;;;;;5003252;28;20194;-83
2021/08/24 06:06:05;;;;;;;7.70;4.07;;;;;;;;;;5023195;28;20210;-84
2021/08/24 06:08:31;;;;;;;5.47;4.60;;;;;;;;;;5020112;28;20182;-84
2021/08/24 06:10:57;;;;;;;6.50;4.43;;;;;;;;;;5021354;28;20380;-83
2021/08/24 06:13:24;;;;;;;7.97;4.77;;;;;;;;;;5021369;28;20170;-83
2021/08/24 06:15:50;;;;;;;7.13;4.93;;;;;;;;;;5022019;28;20668;-83
2021/08/24 06:18:16;;;;;;;7.00;5.13;;;;;;;;;;5018443;28;20552;-84
2021/08/24 06:20:43;;;;;;;5.33;4.57;;;;;;;;;;5032209;28;20181;-83
2021/08/24 06:23:09;;;;;;;5.80;4.23;;;;;;;;;;5033925;28;20231;-84
2021/08/24 06:25:36;;;;;;;5.73;4.97;;;;;;;;;;5029606;28;20181;-83
2021/08/24 06:28:02;;;;;;;6.23;4.90;;;;;;;;;;5020439;28;20531;-84
2021/08/24 06:30:32;;;;;;;5.97;4.47;;;;;;;;;;5017725;28;20190;-83
2021/08/24 06:32:58;;;;;;;6.63;4.67;;;;;;;;;;5016896;28;20181;-83
2021/08/24 06:35:25;;;;;;;7.83;4.63;;;;;;;;;;5018101;28;20233;-83
2021/08/24 06:37:51;;;;;;;6.30;4.70;;;;;;;;;;5015975;28;20249;-84
2021/08/24 06:40:18;;;;;;;8.13;5.07;;;;;;;;;;5020739;28;20329;-84
2021/08/24 06:42:46;;;;;;;6.37;4.73;;;;;;;;;;5018300;28;20572;-82
2021/08/24 06:45:15;;;;;;;8.43;4.50;;;;;;;;;;5016974;28;20289;-84
2021/08/24 06:47:42;;;;;;;7.60;4.90;;;;;;;;;;5020165;28;20277;-82
2021/08/24 06:50:11;;;;;;;6.13;5.53;;;;;;;;;;5019755;28;20525;-83
2021/08/24 06:52:37;;;;;;;6.43;5.07;;;;;;;;;;5018542;28;20498;-82
2021/08/24 06:55:05;;;;;;;7.93;5.67;;;;;;;;;;5025580;28;20677;-84
2021/08/24 06:57:31;;;;;;;7.90;5.80;;;;;;;;;;5021045;28;20178;-84
2021/08/24 06:59:58;;;;;;;9.40;5.23;;;;;;;;;;5018728;28;20224;-84
2021/08/24 07:02:25;;;;;;;6.67;5.67;;;;;;;;;;5003075;28;20673;-83
2021/08/24 07:04:54;;;;;;;6.70;5.00;;;;;;;;;;5040037;28;20203;-84
2021/08/24 07:07:22;;;;;;;6.23;4.97;;;;;;;;;;5040340;28;20206;-83
2021/08/24 07:09:49;;;;;;;6.47;4.67;;;;;;;;;;5040182;28;20189;-81
2021/08/24 07:12:22;;;;;;;6.07;4.83;;;;;;;;;;5021590;28;20327;-86
2021/08/24 07:14:52;;;;;;;5.07;4.17;;;;;;;;;;5023567;28;20213;-87
2021/08/24 07:17:23;;;;;;;5.27;4.07;;;;;;;;;;5043485;28;20352;-87
2021/08/24 07:19:54;;;;;;;5.77;4.53;;;;;;;;;;5037151;28;20185;-88
2021/08/24 07:22:20;;;;;;;4.73;4.27;;;;;;;;;;5040157;28;20559;-85
2021/08/24 07:24:47;;;;;;;6.13;4.63;;;;;;;;;;5019273;28;20195;-82
2021/08/24 07:27:13;;;;;;;4.80;4.30;;;;;;;;;;5037817;28;20200;-82
2021/08/24 07:29:42;;;;;;;6.63;5.13;;;;;;;;;;5037193;28;20193;-82
2021/08/24 07:32:09;;;;;;;6.63;4.60;;;;;;;;;;5034547;28;20409;-82
2021/08/24 07:34:36;;;;;;;6.70;4.67;;;;;;;;;;5016481;28;20205;-82
2021/08/24 07:37:02;;;;;;;5.47;4.80;;;;;;;;;;5018078;28;20174;-82
2021/08/24 07:39:29;;;;;;;5.23;4.70;;;;;;;;;;5033683;28;20184;-82
2021/08/24 07:41:58;;;;;;;4.40;3.97;;;;;;;;;;5034770;28;20182;-82
2021/08/24 07:44:28;;;;;;;5.00;4.50;;;;;;;;;;5019297;28;20264;-81
2021/08/24 07:46:57;;;;;;;5.77;4.43;;;;;;;;;;5019080;28;20241;-81
2021/08/24 07:49:26;;;;;;;4.93;4.13;;;;;;;;;;5032212;28;20210;-81
2021/08/24 07:51:55;;;;;;;5.43;4.47;;;;;;;;;;5035031;28;20345;-82
2021/08/24 07:54:24;;;;;;;5.43;3.97;;;;;;;;;;5034495;28;20209;-81
2021/08/24 07:56:51;;;;;;;4.93;4.13;;;;;;;;;;5033250;28;20177;-81
2021/08/24 07:59:18;;;;;;;6.13;3.50;;;;;;;;;;5002309;28;20269;-81
2021/08/24 08:01:46;;;;;;;7.80;4.27;;;;;;;;;;4997235;28;20284;-81
2021/08/24 08:04:19;;;;;;;6.47;3.70;;;;;;;;;;4996365;28;20241;-80
2021/08/24 08:06:45;;;;;;;4.30;3.73;;;;;;;;;;5023883;28;20222;-80
2021/08/24 08:09:13;;;;;;;4.57;3.63;;;;;;;;;;5013597;28;20494;-79
2021/08/24 08:11:40;;;;;;;7.00;3.80;;;;;;;;;;5012240;28;20632;-80
2021/08/24 08:14:07;;;;;;;4.70;3.37;;;;;;;;;;5014171;28;20194;-80
2021/08/24 08:16:34;;;;;;;4.60;3.33;;;;;;;;;;4994893;28;20340;-80
2021/08/24 08:19:03;;;;;;;4.70;3.00;;;;;;;;;;5013086;28;20229;-80
2021/08/24 08:21:30;;;;;;;7.47;4.13;;;;;;;;;;4979768;28;20562;-80
2021/08/24 08:23:57;;;;;;;4.27;2.83;;;;;;;;;;4996034;28;20196;-80
2021/08/24 08:26:23;;;;;;;2.90;2.60;;;;;;;;;;5025744;28;20213;-79
2021/08/24 08:28:55;;;;;;;3.40;2.40;;;;;;;;;;5013414;28;20739;-80
2021/08/24 08:31:23;;;;;;;3.87;2.47;;;;;;;;;;4996297;28;20196;-80
2021/08/24 08:33:50;;;;;;;4.67;2.70;;;;;;;;;;5011552;28;20189;-80
2021/08/24 08:36:17;;;;;;;5.13;2.63;;;;;;;;;;4998849;28;20241;-79
2021/08/24 08:38:45;;;;;;;4.23;2.27;;;;;;;;;;4993809;28;20179;-80
2021/08/24 08:41:21;;;;;;;2.87;2.20;;;;;;;;;;5011183;28;20517;-80
2021/08/24 08:43:53;;;;;;;2.83;2.33;;;;;;;;;;5016106;28;20174;-80
2021/08/24 08:46:32;;;;;;;3.43;2.17;;;;;;;;;;4996171;28;20252;-79
2021/08/24 08:49:22;;;;;;;2.60;2.10;;;;;;;;;;5013957;28;20174;-80
2021/08/24 08:51:51;;;;;;;2.80;2.47;;;;;;;;;;4984021;28;20188;-79
2021/08/24 08:54:20;;;;;;;2.43;2.23;;;;;;;;;;4993867;28;20283;-79
2021/08/24 08:57:13;;;;;;;2.90;2.27;;;;;;;;;;5012506;28;20693;-79
2021/08/24 08:59:49;;;;;;;2.63;1.90;;;;;;;;;;5008134;28;20226;-79
2021/08/24 09:02:15;;;;;;;7.40;2.40;;;;;;;;;;5032159;28;20180;-79
2021/08/24 09:04:44;;;;;;;3.40;1.87;;;;;;;;;;5031707;28;20198;-79
2021/08/24 09:07:19;;;;;;;2.33;2.10;;;;;;;;;;5016492;28;20209;-80
2021/08/24 09:09:45;;;;;;;2.10;1.90;;;;;;;;;;5015639;28;20271;-80
2021/08/24 09:12:12;;;;;;;2.30;2.07;;;;;;;;;;5038560;28;20180;-81
2021/08/24 09:14:41;;;;;;;2.70;2.30;;;;;;;;;;5022182;28;20265;-81
2021/08/24 09:17:14;;;;;;;3.67;2.20;;;;;;;;;;5018906;28;20187;-81
2021/08/24 09:19:49;;;;;;;2.57;2.30;;;;;;;;;;5019898;28;20182;-81
2021/08/24 09:22:19;;;;;;;3.07;2.37;;;;;;;;;;5036783;28;20183;-81
2021/08/24 09:24:45;;;;;;;2.70;2.07;;;;;;;;;;5036125;28;20183;-81
2021/08/24 09:27:24;;;;;;;4.30;2.30;;;;;;;;;;5019202;28;20175;-81
2021/08/24 09:29:51;;;;;;;3.20;2.20;;;;;;;;;;5037978;28;20193;-81
2021/08/24 09:32:19;;;;;;;2.73;2.20;;;;;;;;;;5036074;28;20178;-82
2021/08/24 09:34:47;;;;;;;3.07;2.30;;;;;;;;;;5017943;28;20193;-82
2021/08/24 09:37:18;;;;;;;4.93;2.50;;;;;;;;;;5015745;28;20179;-79
2021/08/24 09:39:51;;;;;;;3.53;2.40;;;;;;;;;;5014280;28;20193;-80
2021/08/24 09:42:26;;;;;;;3.83;2.27;;;;;;;;;;5032699;28;20800;-79
2021/08/24 09:44:54;;;;;;;2.43;2.13;;;;;;;;;;5032103;28;20192;-79
2021/08/24 09:47:22;;;;;;;3.13;2.23;;;;;;;;;;5032258;28;20177;-80
2021/08/24 09:49:49;;;;;;;2.90;2.23;;;;;;;;;;5014267;28;20201;-80
2021/08/24 09:52:26;;;;;;;5.73;2.70;;;;;;;;;;5031344;28;20194;-80
2021/08/24 09:54:54;;;;;;;3.63;2.47;;;;;;;;;;5017198;28;20403;-79
2021/08/24 09:57:28;;;;;;;3.63;2.73;;;;;;;;;;5013834;28;20178;-80
2021/08/24 09:59:57;;;;;;;3.80;2.77;;;;;;;;;;5013233;28;20450;-81
2021/08/24 10:02:36;;;;;;;5.27;2.63;;;;;;;;;;5030245;28;20184;-81
2021/08/24 10:05:03;;;;;;;5.03;2.50;;;;;;;;;;5031207;28;20197;-80
2021/08/24 10:07:48;;;;;;;4.57;2.70;;;;;;;;;;5031667;28;20201;-81
2021/08/24 10:10:26;;;;;;;6.30;2.63;;;;;;;;;;5010276;28;20192;-80
2021/08/24 10:12:52;;;;;;;5.17;3.23;;;;;;;;;;4996430;28;20202;-82
2021/08/24 10:15:21;;;;;;;4.17;3.33;;;;;;;;;;5034597;28;20208;-79
2021/08/24 10:17:48;;;;;;;7.27;3.40;;;;;;;;;;5034931;28;20180;-80
2021/08/24 10:20:27;;;;;;;5.37;3.00;;;;;;;;;;5000744;28;20192;-79
2021/08/24 10:22:54;;;;;;;4.70;2.90;;;;;;;;;;5035247;28;20166;-80
2021/08/24 10:25:47;;;;;;;3.97;2.83;;;;;;;;;;5024778;28;20653;-79
2021/08/24 10:28:36;;;;;;;3.67;3.00;;;;;;;;;;5028121;28;20192;-79
2021/08/24 10:31:22;;;;;;;3.53;2.60;;;;;;;;;;5015905;28;20684;-80
2021/08/24 10:33:51;;;;;;;4.90;3.37;;;;;;;;;;5021972;28;20186;-80
2021/08/24 10:36:23;;;;;;;4.63;2.80;;;;;;;;;;5028135;28;20251;-81
2021/08/24 10:38:58;;;;;;;5.27;2.83;;;;;;;;;;5022329;28;20669;-81
2021/08/24 10:41:29;;;;;;;3.80;2.70;;;;;;;;;;5027852;28;20667;-83
2021/08/24 10:43:57;;;;;;;3.83;3.23;;;;;;;;;;5017915;28;20781;-85
2021/08/24 10:46:24;;;;;;;2.90;2.60;;;;;;;;;;5018336;28;20174;-86
2021/08/24 10:48:50;;;;;;;6.10;2.97;;;;;;;;;;5018072;28;20260;-81
2021/08/24 10:51:37;;;;;;;3.80;2.83;;;;;;;;;;5018232;28;20698;-79
2021/08/24 10:54:06;;;;;;;3.87;2.57;;;;;;;;;;5018570;28;20197;-85
2021/08/24 10:56:34;;;;;;;4.50;3.47;;;;;;;;;;5018171;28;20205;-84
2021/08/24 10:59:13;;;;;;;5.77;4.10;;;;;;;;;;5035744;28;20218;-84
2021/08/24 11:01:58;;;;;;;6.90;3.00;;;;;;;;;;4998835;28;20209;-81
2021/08/24 11:04:37;;;;;;;5.03;2.60;;;;;;;;;;5017007;28;20189;-80
2021/08/24 11:07:27;;;;;;;2.87;2.37;;;;;;;;;;5053869;28;20201;-82
2021/08/24 11:09:59;;;;;;;3.93;3.33;;;;;;;;;;4972023;28;20233;-82
2021/08/24 11:12:45;;;;;;;3.17;2.53;;;;;;;;;;5018404;28;20190;-84
2021/08/24 11:15:14;;;;;;;4.07;2.27;;;;;;;;;;5021057;28;20193;-83
2021/08/24 11:17:53;;;;;;;3.87;2.80;;;;;;;;;;5021492;28;20166;-83
2021/08/24 11:20:25;;;;;;;3.30;3.00;;;;;;;;;;5028779;28;20199;-87
2021/08/24 11:22:58;;;;;;;3.63;2.87;;;;;;;;;;5055646;28;20198;-80
2021/08/24 11:25:27;;;;;;;6.03;2.63;;;;;;;;;;5048253;28;20213;-85
2021/08/24 11:28:00;;;;;;;4.77;3.13;;;;;;;;;;5017295;28;20725;-81
2021/08/24 11:30:35;;;;;;;4.30;2.73;;;;;;;;;;5017965;28;20173;-81
2021/08/24 11:33:09;;;;;;;6.70;3.17;;;;;;;;;;5035042;28;20184;-82
2021/08/24 11:35:45;;;;;;;3.40;2.90;;;;;;;;;;5018743;28;20212;-82
2021/08/24 11:38:14;;;;;;;3.40;2.77;;;;;;;;;;5031992;28;20204;-82
2021/08/24 11:40:44;;;;;;;3.70;2.63;;;;;;;;;;5012590;28;20208;-83
2021/08/24 11:43:16;;;;;;;3.43;2.87;;;;;;;;;;5033097;28;20178;-84
2021/08/24 11:45:52;;;;;;;5.80;3.30;;;;;;;;;;5014106;28;20660;-82
2021/08/24 11:48:24;;;;;;;4.20;2.93;;;;;;;;;;5005609;28;20178;-82
2021/08/24 11:50:53;;;;;;;5.93;3.40;;;;;;;;;;5020330;28;20223;-81
2021/08/24 11:53:31;;;;;;;3.37;2.90;;;;;;;;;;5037755;28;20181;-81
2021/08/24 11:55:59;;;;;;;4.70;3.07;;;;;;;;;;5037094;28;20238;-81
2021/08/24 11:58:35;;;;;;;3.23;2.83;;;;;;;;;;5039197;28;20247;-81
2021/08/24 12:01:02;;;;;;;3.83;3.00;;;;;;;;;;5021603;28;20622;-81
2021/08/24 12:03:29;;;;;;;7.87;3.40;;;;;;;;;;5037548;28;20175;-81
2021/08/24 12:06:04;;;;;;;4.17;2.73;;;;;;;;;;5020891;28;20193;-81
2021/08/24 12:08:32;;;;;;;6.07;2.77;;;;;;;;;;5019621;28;20643;-80
2021/08/24 12:11:07;;;;;;;3.53;2.80;;;;;;;;;;5017043;28;20193;-81
2021/08/24 12:13:36;;;;;;;6.10;2.70;;;;;;;;;;5016877;28;20691;-81
2021/08/24 12:16:11;;;;;;;2.83;2.53;;;;;;;;;;5016391;28;20217;-80
2021/08/24 12:18:37;;;;;;;4.17;2.63;;;;;;;;;;5016172;28;20181;-80
2021/08/24 12:21:22;;;;;;;3.50;2.53;;;;;;;;;;5034297;28;20208;-80
2021/08/24 12:23:48;;;;;;;3.30;2.47;;;;;;;;;;5035963;28;20177;-81
2021/08/24 12:26:20;;;;;;;4.80;2.60;;;;;;;;;;5030968;28;20280;-81
2021/08/24 12:28:47;;;;;;;4.53;2.97;;;;;;;;;;5014902;28;20563;-80
2021/08/24 12:31:25;;;;;;;2.40;2.00;;;;;;;;;;5016297;28;20246;-81
2021/08/24 12:33:51;;;;;;;5.40;2.43;;;;;;;;;;5016075;28;20280;-81
2021/08/24 12:36:17;;;;;;;3.80;2.83;;;;;;;;;;5014002;28;20186;-82
2021/08/24 12:38:43;;;;;;;3.50;2.33;;;;;;;;;;5031889;28;20733;-82
2021/08/24 12:41:10;;;;;;;2.73;2.20;;;;;;;;;;5031836;28;20619;-81
2021/08/24 12:43:42;;;;;;;6.50;2.33;;;;;;;;;;5015187;28;20174;-82
2021/08/24 12:46:22;;;;;;;2.83;1.90;;;;;;;;;;5014633;28;20181;-80
2021/08/24 12:49:19;;;;;;;4.47;2.23;;;;;;;;;;5031880;28;20512;-80
2021/08/24 12:51:46;;;;;;;3.33;2.30;;;;;;;;;;4996684;28;20248;-80
2021/08/24 12:54:13;;;;;;;4.37;2.40;;;;;;;;;;4999355;28;20169;-80
2021/08/24 12:56:44;;;;;;;2.23;1.87;;;;;;;;;;5030037;28;20166;-80
2021/08/24 12:59:26;;;;;;;2.90;2.20;;;;;;;;;;5031341;28;20224;-80
2021/08/24 13:02:28;;;;;;;3.43;2.37;;;;;;;;;;5037757;28;20325;-80
2021/08/24 13:04:57;;;;;;;3.13;2.27;;;;;;;;;;4962711;28;20218;-80
2021/08/24 13:07:43;;;;;;;5.70;2.30;;;;;;;;;;5003970;28;20279;-81
2021/08/24 13:10:31;;;;;;;2.73;2.10;;;;;;;;;;5022580;28;20174;-80
2021/08/24 13:12:58;;;;;;;2.87;2.57;;;;;;;;;;5016582;28;20571;-81
2021/08/24 13:15:30;;;;;;;4.57;2.30;;;;;;;;;;5012051;28;20209;-80
2021/08/24 13:18:15;;;;;;;2.93;2.40;;;;;;;;;;4997815;28;20189;-81
2021/08/24 13:20:43;;;;;;;3.20;2.23;;;;;;;;;;4996629;28;20209;-81
2021/08/24 13:23:14;;;;;;;4.07;2.57;;;;;;;;;;5012554;28;20244;-81
2021/08/24 13:25:41;;;;;;;3.37;2.40;;;;;;;;;;5034022;28;20189;-81
2021/08/24 13:28:11;;;;;;;4.00;2.60;;;;;;;;;;5017718;28;20198;-81
2021/08/24 13:30:45;;;;;;;2.83;2.30;;;;;;;;;;5021170;28;20201;-81
2021/08/24 13:33:34;;;;;;;3.13;2.23;;;;;;;;;;5022258;28;20177;-81
2021/08/24 13:36:00;;;;;;;4.10;2.87;;;;;;;;;;5037885;28;20247;-81
2021/08/24 13:38:31;;;;;;;4.07;2.60;;;;;;;;;;5020902;28;20193;-81
2021/08/24 13:41:06;;;;;;;3.90;2.60;;;;;;;;;;5022388;28;20194;-81
2021/08/24 13:43:33;;;;;;;3.17;2.33;;;;;;;;;;5022299;28;20204;-81
2021/08/24 13:46:01;;;;;;;5.87;2.60;;;;;;;;;;5018767;28;20191;-81
2021/08/24 13:48:29;;;;;;;4.17;2.33;;;;;;;;;;5019970;28;20663;-82
2021/08/24 13:51:00;;;;;;;5.30;2.47;;;;;;;;;;5035590;28;20282;-81
2021/08/24 13:53:27;;;;;;;3.70;2.70;;;;;;;;;;5028175;28;20176;-82
2021/08/24 13:55:58;;;;;;;3.40;2.20;;;;;;;;;;5028557;28;20200;-81
2021/08/24 13:58:45;;;;;;;4.00;2.40;;;;;;;;;;5039681;28;20639;-81
2021/08/24 14:01:19;;;;;;;2.90;2.53;;;;;;;;;;5041838;28;20194;-81
2021/08/24 14:03:52;;;;;;;4.13;3.00;;;;;;;;;;5021934;28;20417;-81
2021/08/24 14:06:36;;;;;;;11.10;2.70;;;;;;;;;;5040427;28;20195;-81
2021/08/24 14:09:14;;;;;;;3.87;2.30;;;;;;;;;;5010651;28;20182;-81
2021/08/24 14:11:40;;;;;;;3.50;2.47;;;;;;;;;;5023606;28;20186;-81
2021/08/24 14:14:07;;;;;;;6.37;2.60;;;;;;;;;;5022306;28;20181;-81
2021/08/24 14:16:35;;;;;;;4.17;3.17;;;;;;;;;;5022155;28;20178;-81
2021/08/24 14:19:08;;;;;;;10.10;2.83;;;;;;;;;;5028565;28;20177;-82
2021/08/24 14:21:36;;;;;;;2.70;2.20;;;;;;;;;;5019981;28;20562;-80
2021/08/24 14:24:05;;;;;;;3.23;2.53;;;;;;;;;;5019473;28;20182;-85
2021/08/24 14:26:38;;;;;;;4.17;2.20;;;;;;;;;;5023590;28;20174;-83
2021/08/24 14:29:06;;;;;;;3.57;2.57;;;;;;;;;;5023755;28;20308;-85
2021/08/24 14:31:37;;;;;;;2.47;2.07;;;;;;;;;;5044309;28;20256;-86
2021/08/24 14:34:18;;;;;;;3.67;2.10;;;;;;;;;;5022124;28;20577;-85
2021/08/24 14:36:48;;;;;;;4.27;2.10;;;;;;;;;;5024378;28;20194;-85
2021/08/24 14:39:23;;;;;;;2.37;2.17;;;;;;;;;;5026297;28;20177;-85
2021/08/24 14:41:53;;;;;;;3.33;2.03;;;;;;;;;;5041654;28;20173;-86
2021/08/24 14:44:28;;;;;;;10.93;2.87;;;;;;;;;;5025426;28;20263;-86
2021/08/24 14:46:56;;;;;;;3.30;2.33;;;;;;;;;;5025310;28;20185;-85
2021/08/24 14:49:26;;;;;;;4.73;2.20;;;;;;;;;;5025539;28;20198;-85
2021/08/24 14:52:15;;;;;;;2.63;2.40;;;;;;;;;;5009398;28;20194;-84
2021/08/24 14:54:41;;;;;;;4.23;2.50;;;;;;;;;;5007564;28;20229;-86
2021/08/24 14:57:27;;;;;;;2.57;2.10;;;;;;;;;;5023808;28;20204;-85
2021/08/24 15:00:13;;;;;;;5.50;3.20;;;;;;;;;;5009542;28;20218;-85
2021/08/24 15:02:44;;;;;;;3.03;2.70;;;;;;;;;;4999106;28;21155;-84
2021/08/24 15:05:35;;;;;;;3.47;2.60;;;;;;;;;;5016559;28;20199;-84